Battleboro, North Carolina
Current Conditions -  °F | °C
As of 3:35 PM on Thursday 20 Nov 2014 (Local Time) from KETC Reporting Station
Clear Clear  
Wind Chill: 58°   Ceiling: Unl
Heat Index: 58°   Visibility: 10mi
Dew Point: 27°   Wind: 14mph
Humidity: 30%   Direction: 250°WSW
Pressure: 30.02"   Gusts: 17mph
Location:  36.05°N, 77.75°W
Report Text: KETC 202035Z AUTO 25012G15KT 10SM CLR 15/M03 A3002 RMK AO2 T01471028
Loading
Personal Weather Stations






























Interactive Weather Map New forecast layout! Learn more

10-Day Weather Forecast

Advertisements
Track Severe Weather on mobile